createdAt,value
2019-01-19T00:01:11.184Z,9.20
2019-01-19T00:03:45.345Z,9.20
2019-01-19T00:06:25.924Z,8.95
2019-01-19T00:08:54.616Z,8.97
2019-01-19T00:11:45.788Z,9.23
2019-01-19T00:14:17.600Z,8.90
2019-01-19T00:16:54.624Z,9.30
2019-01-19T00:19:54.205Z,8.75
2019-01-19T00:22:31.533Z,8.90
2019-01-19T00:25:09.031Z,8.53
2019-01-19T00:27:59.412Z,8.60
2019-01-19T00:30:33.323Z,8.75
2019-01-19T00:33:07.884Z,9.10
2019-01-19T00:35:45.197Z,9.08
2019-01-19T00:38:44.385Z,8.90
2019-01-19T00:41:35.331Z,8.70
2019-01-19T00:44:15.600Z,8.68
2019-01-19T00:46:52.188Z,8.38
2019-01-19T00:49:20.480Z,8.43
2019-01-19T00:52:08.356Z,8.28
2019-01-19T00:54:40.221Z,9.03
2019-01-19T00:57:14.633Z,8.58
2019-01-19T00:59:43.400Z,8.63
2019-01-19T01:02:23.795Z,8.48
2019-01-19T01:05:25.264Z,8.75
2019-01-19T01:08:10.526Z,9.05
2019-01-19T01:10:42.012Z,8.80
2019-01-19T01:13:26.507Z,9.13
2019-01-19T01:16:00.608Z,9.13
2019-01-19T01:18:54.427Z,9.28
2019-01-19T01:21:42.327Z,9.33
2019-01-19T01:24:28.952Z,9.28
2019-01-19T01:27:18.140Z,9.33
2019-01-19T01:30:23.084Z,9.05
2019-01-19T01:33:12.470Z,9.93
2019-01-19T01:36:03.279Z,10.03
2019-01-19T01:38:40.253Z,9.83
2019-01-19T01:41:28.037Z,10.30
2019-01-19T01:44:08.344Z,10.30
2019-01-19T01:47:07.172Z,10.15
2019-01-19T01:49:38.660Z,10.45
2019-01-19T01:52:22.055Z,10.68
2019-01-19T01:54:59.624Z,11.30
2019-01-19T01:57:27.875Z,11.87
2019-01-19T02:00:17.080Z,11.43
2019-01-19T02:02:51.349Z,12.35
2019-01-19T02:05:31.778Z,13.00
2019-01-19T02:08:12.895Z,13.83
2019-01-19T02:10:58.998Z,13.48
2019-01-19T02:13:52.665Z,13.62
2019-01-19T02:16:45.242Z,14.07
2019-01-19T02:19:31.789Z,14.13
2019-01-19T02:22:21.617Z,14.15
2019-01-19T02:25:11.199Z,14.03
2019-01-19T02:28:11.323Z,14.70
2019-01-19T02:31:05.699Z,14.50
2019-01-19T02:33:45.442Z,15.10
2019-01-19T02:36:17.194Z,15.55
2019-01-19T02:39:13.052Z,15.83
2019-01-19T02:41:56.228Z,16.47
2019-01-19T02:44:30.311Z,16.50
2019-01-19T02:47:21.299Z,15.75
2019-01-19T02:50:19.194Z,16.10
2019-01-19T02:53:19.444Z,17.02
2019-01-19T02:56:00.047Z,17.97
2019-01-19T02:58:43.355Z,18.40
2019-01-19T03:01:31.193Z,18.80
2019-01-19T03:04:08.619Z,20.48
2019-01-19T03:06:40.114Z,19.48
2019-01-19T03:09:17.464Z,19.92
2019-01-19T03:11:48.932Z,20.75
2019-01-19T03:14:39.868Z,20.05
2019-01-19T03:17:26.016Z,20.90
2019-01-19T03:19:57.506Z,21.35
2019-01-19T03:22:31.871Z,22.45
2019-01-19T03:25:12.183Z,21.93
2019-01-19T03:28:07.919Z,21.30
2019-01-19T03:30:56.161Z,22.65
2019-01-19T03:33:45.231Z,22.10
2019-01-19T03:36:28.555Z,22.70
2019-01-19T03:39:00.556Z,23.22
2019-01-19T03:41:38.475Z,23.30
2019-01-19T03:44:18.968Z,21.87
2019-01-19T03:47:15.871Z,22.00
2019-01-19T03:49:58.972Z,21.85
2019-01-19T03:52:42.711Z,20.48
2019-01-19T03:55:22.917Z,21.45
2019-01-19T03:58:10.667Z,22.48
2019-01-19T04:00:57.102Z,22.45
2019-01-19T04:03:31.154Z,22.20
2019-01-19T04:06:20.902Z,22.03
2019-01-19T04:09:18.834Z,22.37
2019-01-19T04:11:55.729Z,22.07
2019-01-19T04:14:46.586Z,22.43
2019-01-19T04:17:46.602Z,23.22
2019-01-19T04:20:30.223Z,21.42
2019-01-19T04:22:59.789Z,22.47
2019-01-19T04:25:31.528Z,21.62
2019-01-19T04:28:01.396Z,21.57
2019-01-19T04:30:29.604Z,20.52
2019-01-19T04:32:57.850Z,22.32
2019-01-19T04:35:26.063Z,22.27
2019-01-19T04:37:54.290Z,21.45
2019-01-19T04:40:22.536Z,21.35
2019-01-19T04:42:50.927Z,21.12
2019-01-19T04:45:19.137Z,20.77
2019-01-19T04:47:47.358Z,19.10
2019-01-19T04:50:15.738Z,19.75
2019-01-19T04:52:43.958Z,18.98
2019-01-19T04:55:12.282Z,18.65
2019-01-19T04:57:40.511Z,19.07
2019-01-19T05:00:17.875Z,17.92
2019-01-19T05:02:46.308Z,18.23
2019-01-19T05:05:14.543Z,17.73
2019-01-19T05:07:42.789Z,17.73
2019-01-19T05:10:11.997Z,16.57
2019-01-19T05:12:40.259Z,15.97
2019-01-19T05:15:13.709Z,15.45
2019-01-19T05:17:42.164Z,15.00
2019-01-19T05:20:12.411Z,14.63
2019-01-19T05:22:40.648Z,14.58
2019-01-19T05:25:10.883Z,12.93
2019-01-19T05:27:39.114Z,12.20
2019-01-19T05:30:13.114Z,12.98
2019-01-19T05:32:41.532Z,12.00
2019-01-19T05:35:09.763Z,11.85
2019-01-19T05:37:37.991Z,11.38
2019-01-19T05:40:09.588Z,11.20
2019-01-19T05:42:37.785Z,10.25
2019-01-19T05:45:08.731Z,10.00
2019-01-19T05:47:36.944Z,9.20
2019-01-19T05:50:16.282Z,9.53
2019-01-19T05:52:44.492Z,9.60
2019-01-19T05:55:12.712Z,9.30
2019-01-19T05:57:40.916Z,9.30
2019-01-19T06:00:15.203Z,9.25
2019-01-19T06:02:43.490Z,9.15
2019-01-19T06:05:11.707Z,8.63
2019-01-19T06:07:41.577Z,8.73
2019-01-19T06:10:13.070Z,8.70
2019-01-19T06:12:41.334Z,7.85
2019-01-19T06:15:12.761Z,8.05
2019-01-19T06:17:40.960Z,7.53
2019-01-19T06:20:14.695Z,8.00
2019-01-19T06:22:42.903Z,7.70
2019-01-19T06:25:15.334Z,7.22
2019-01-19T06:27:43.596Z,7.70
2019-01-19T06:30:17.465Z,7.20
2019-01-19T06:32:45.747Z,7.30
2019-01-19T06:35:13.961Z,7.35
2019-01-19T06:37:42.199Z,7.27
2019-01-19T06:40:15.246Z,7.42
2019-01-19T06:42:43.558Z,7.65
2019-01-19T06:45:15.099Z,7.40
2019-01-19T06:47:43.399Z,7.80
2019-01-19T06:50:14.066Z,7.78
2019-01-19T06:52:42.293Z,8.28
2019-01-19T06:55:13.149Z,7.95
2019-01-19T06:57:41.365Z,8.45
2019-01-19T07:00:14.852Z,8.80
2019-01-19T07:02:43.226Z,8.50
2019-01-19T07:05:11.739Z,9.03
2019-01-19T07:07:39.944Z,8.60
2019-01-19T07:10:11.610Z,8.70
2019-01-19T07:12:39.870Z,9.50
2019-01-19T07:15:10.258Z,8.75
2019-01-19T07:17:38.850Z,9.33
2019-01-19T07:20:10.326Z,9.33
2019-01-19T07:22:38.545Z,8.83
2019-01-19T07:25:06.799Z,9.25
2019-01-19T07:27:35.007Z,9.25
2019-01-19T07:30:03.222Z,8.80
2019-01-19T07:32:31.453Z,8.60
2019-01-19T07:34:59.662Z,8.70
2019-01-19T07:37:27.887Z,8.40
2019-01-19T07:39:56.148Z,7.50
2019-01-19T07:42:24.406Z,7.70
2019-01-19T07:44:52.636Z,7.33
2019-01-19T07:47:21.258Z,7.20
2019-01-19T07:49:49.456Z,7.00
2019-01-19T07:52:17.685Z,6.87
2019-01-19T07:54:45.910Z,7.15
2019-01-19T07:57:14.110Z,6.75
2019-01-19T07:59:42.329Z,7.35
2019-01-19T08:02:10.575Z,6.87
2019-01-19T08:04:38.799Z,6.95
2019-01-19T08:07:07.039Z,7.20
2019-01-19T08:09:35.283Z,7.00
2019-01-19T08:12:03.975Z,7.20
2019-01-19T08:14:32.190Z,6.92
2019-01-19T08:17:00.423Z,6.80
2019-01-19T08:19:29.394Z,7.10
2019-01-19T08:21:57.602Z,7.57
2019-01-19T08:24:25.851Z,6.90
2019-01-19T08:26:55.505Z,6.72
2019-01-19T08:29:23.715Z,6.43
2019-01-19T08:31:51.961Z,7.03
2019-01-19T08:34:20.176Z,7.03
2019-01-19T08:36:48.383Z,7.17
2019-01-19T08:39:16.782Z,6.78
2019-01-19T08:41:45.018Z,6.90
2019-01-19T08:44:13.255Z,6.58
2019-01-19T08:46:41.627Z,6.47
2019-01-19T08:49:09.832Z,6.80
2019-01-19T08:51:38.065Z,6.78
2019-01-19T08:54:06.328Z,7.20
2019-01-19T08:56:34.551Z,6.05
2019-01-19T08:59:02.759Z,6.50
2019-01-19T09:01:31.070Z,6.33
2019-01-19T09:03:59.283Z,6.00
2019-01-19T09:06:27.511Z,5.75
2019-01-19T09:08:55.758Z,6.15
2019-01-19T09:11:24.000Z,6.20
2019-01-19T09:13:52.207Z,6.20
2019-01-19T09:16:20.439Z,5.90
2019-01-19T09:18:48.661Z,5.83
2019-01-19T09:21:16.978Z,5.92
2019-01-19T09:23:46.847Z,6.30
2019-01-19T09:26:15.056Z,6.22
2019-01-19T09:28:43.252Z,5.90
2019-01-19T09:31:11.493Z,6.15
2019-01-19T09:33:39.731Z,6.45
2019-01-19T09:36:07.939Z,5.70
2019-01-19T09:38:36.150Z,6.20
2019-01-19T09:41:04.562Z,5.85
2019-01-19T09:43:32.748Z,5.65
2019-01-19T09:46:00.967Z,5.12
2019-01-19T09:48:29.162Z,4.75
2019-01-19T09:50:57.398Z,4.20
2019-01-19T09:53:25.587Z,4.30
2019-01-19T09:55:53.802Z,3.90
2019-01-19T09:58:22.020Z,4.40
2019-01-19T10:00:50.226Z,4.62
2019-01-19T10:03:18.426Z,4.50
2019-01-19T10:05:46.628Z,4.40
2019-01-19T10:08:14.838Z,4.53
2019-01-19T10:10:44.062Z,4.35
2019-01-19T10:13:18.183Z,4.55
2019-01-19T10:15:46.379Z,4.75
2019-01-19T10:18:14.582Z,4.67
2019-01-19T10:20:44.412Z,4.78
2019-01-19T10:23:12.630Z,4.78
2019-01-19T10:25:40.830Z,4.47
2019-01-19T10:28:09.029Z,4.67
2019-01-19T10:30:37.265Z,4.47
2019-01-19T10:33:05.518Z,4.80
2019-01-19T10:35:33.823Z,4.70
2019-01-19T10:38:02.083Z,4.72
2019-01-19T10:40:30.278Z,4.72
2019-01-19T10:42:58.486Z,4.92
2019-01-19T10:45:28.343Z,5.15
2019-01-19T10:47:56.546Z,4.50
2019-01-19T10:50:24.773Z,4.80
2019-01-19T10:52:52.993Z,4.20
2019-01-19T10:55:22.480Z,4.28
2019-01-19T10:57:50.696Z,4.12
2019-01-19T11:00:30.702Z,4.00
2019-01-19T11:02:59.534Z,3.62
2019-01-19T11:05:28.279Z,4.28
2019-01-19T11:08:03.196Z,4.20
2019-01-19T11:10:29.054Z,4.40
2019-01-19T11:12:57.319Z,4.10
2019-01-19T11:15:25.528Z,4.20
2019-01-19T11:17:53.752Z,4.35
2019-01-19T11:20:25.666Z,4.70
2019-01-19T11:22:54.343Z,4.40
2019-01-19T11:25:22.570Z,4.78
2019-01-19T11:27:50.809Z,5.08
2019-01-19T11:30:24.354Z,5.00
2019-01-19T11:32:52.592Z,4.28
2019-01-19T11:35:20.832Z,4.50
2019-01-19T11:37:49.034Z,4.70
2019-01-19T11:40:22.794Z,4.33
2019-01-19T11:42:51.004Z,4.20
2019-01-19T11:45:21.007Z,4.37
2019-01-19T11:47:49.211Z,4.42
2019-01-19T11:50:17.496Z,4.42
2019-01-19T11:52:45.768Z,4.03
2019-01-19T11:55:19.290Z,4.28
2019-01-19T11:57:49.334Z,4.13
2019-01-19T12:00:26.154Z,4.17
2019-01-19T12:02:54.359Z,4.15
2019-01-19T12:05:22.600Z,4.40
2019-01-19T12:07:51.583Z,4.30
2019-01-19T12:10:22.490Z,4.20
2019-01-19T12:12:50.732Z,4.17
2019-01-19T12:15:18.929Z,3.93
2019-01-19T12:17:47.135Z,4.10
2019-01-19T12:20:29.850Z,3.97
2019-01-19T12:22:58.046Z,4.17
2019-01-19T12:25:26.315Z,4.30
2019-01-19T12:27:54.496Z,4.00
2019-01-19T12:30:30.439Z,4.40
2019-01-19T12:32:58.640Z,4.00
2019-01-19T12:35:26.994Z,4.40
2019-01-19T12:37:55.735Z,4.30
2019-01-19T12:40:26.513Z,4.10
2019-01-19T12:42:57.273Z,4.20
2019-01-19T12:45:28.730Z,4.55
2019-01-19T12:47:56.951Z,4.37
2019-01-19T12:50:26.902Z,4.55
2019-01-19T12:52:55.124Z,4.75
2019-01-19T12:55:23.330Z,4.37
2019-01-19T12:57:51.571Z,3.98
2019-01-19T13:00:22.294Z,3.95
2019-01-19T13:02:50.526Z,4.12
2019-01-19T13:05:31.290Z,4.25
2019-01-19T13:07:59.755Z,4.25
2019-01-19T13:10:39.983Z,4.55
2019-01-19T13:13:08.463Z,4.33
2019-01-19T13:15:42.470Z,4.50
2019-01-19T13:18:16.658Z,4.20
2019-01-19T13:21:15.676Z,4.50
2019-01-19T13:24:15.846Z,4.47
2019-01-19T13:26:53.430Z,4.40
2019-01-19T13:29:47.738Z,4.20
2019-01-19T13:32:31.529Z,4.30
2019-01-19T13:35:25.911Z,4.17
2019-01-19T13:38:12.160Z,4.50
2019-01-19T13:40:55.482Z,4.00
2019-01-19T13:43:41.866Z,4.60
2019-01-19T13:46:31.282Z,4.22
2019-01-19T13:49:34.603Z,4.33
2019-01-19T13:52:06.071Z,4.50
2019-01-19T13:54:48.817Z,4.60
2019-01-19T13:57:20.336Z,4.30
2019-01-19T14:00:01.035Z,4.50
2019-01-19T14:02:47.489Z,4.47
2019-01-19T14:05:37.391Z,4.30
2019-01-19T14:08:20.676Z,4.53
2019-01-19T14:11:03.797Z,4.40
2019-01-19T14:13:51.554Z,4.10
2019-01-19T14:16:25.695Z,4.27
2019-01-19T14:19:28.559Z,5.00
2019-01-19T14:22:15.022Z,4.83
2019-01-19T14:24:49.186Z,4.72
2019-01-19T14:27:35.801Z,5.17
2019-01-19T14:30:25.310Z,4.75
2019-01-19T14:33:05.564Z,5.10
2019-01-19T14:35:42.880Z,5.08
2019-01-19T14:38:23.079Z,5.03
2019-01-19T14:41:06.513Z,5.10
2019-01-19T14:43:54.825Z,5.00
2019-01-19T14:46:43.122Z,5.03
2019-01-19T14:49:23.414Z,5.03
2019-01-19T14:51:54.907Z,5.17
2019-01-19T14:54:35.551Z,5.25
2019-01-19T14:57:15.870Z,5.50
2019-01-19T14:59:59.341Z,5.37
2019-01-19T15:02:42.595Z,5.17
2019-01-19T15:05:22.374Z,5.20
2019-01-19T15:07:59.403Z,5.72
2019-01-19T15:10:42.682Z,5.42
2019-01-19T15:13:17.107Z,5.40
2019-01-19T15:15:50.081Z,5.60
2019-01-19T15:18:34.479Z,5.83
2019-01-19T15:21:17.975Z,5.78
2019-01-19T15:23:58.292Z,5.75
2019-01-19T15:26:38.850Z,6.20
2019-01-19T15:29:27.009Z,5.90
2019-01-19T15:32:07.194Z,5.83
2019-01-19T15:34:59.818Z,5.92
2019-01-19T15:37:46.516Z,6.20
2019-01-19T15:40:32.912Z,5.78
2019-01-19T15:43:04.367Z,5.83
2019-01-19T15:45:44.707Z,5.83
2019-01-19T15:48:18.743Z,6.20
2019-01-19T15:51:18.824Z,5.83
2019-01-19T15:54:10.758Z,5.95
2019-01-19T15:56:54.125Z,6.40
2019-01-19T15:59:42.144Z,6.15
2019-01-19T16:02:47.282Z,6.00
2019-01-19T16:05:18.749Z,6.00
2019-01-19T16:07:53.009Z,6.00
2019-01-19T16:10:45.334Z,6.00
2019-01-19T16:13:16.835Z,6.20
2019-01-19T16:16:09.294Z,6.60
2019-01-19T16:18:46.871Z,6.87
2019-01-19T16:21:35.126Z,6.62
2019-01-19T16:24:09.609Z,6.92
2019-01-19T16:26:52.929Z,7.35
2019-01-19T16:29:27.139Z,7.90
2019-01-19T16:32:08.034Z,8.45
2019-01-19T16:34:51.777Z,8.95
2019-01-19T16:37:49.016Z,10.20
2019-01-19T16:40:20.495Z,11.83
2019-01-19T16:43:16.011Z,11.20
2019-01-19T16:46:04.977Z,11.83
2019-01-19T16:48:51.595Z,12.43
2019-01-19T16:51:41.079Z,13.18
2019-01-19T16:54:18.136Z,13.03
2019-01-19T16:57:04.475Z,12.50
2019-01-19T16:59:51.629Z,11.70
2019-01-19T17:02:26.214Z,11.50
2019-01-19T17:05:21.938Z,11.03
2019-01-19T17:08:02.358Z,11.10
2019-01-19T17:10:48.702Z,12.85
2019-01-19T17:13:26.094Z,12.73
2019-01-19T17:16:00.230Z,11.97
2019-01-19T17:18:34.466Z,9.40
2019-01-19T17:21:17.714Z,9.55
2019-01-19T17:24:00.923Z,10.23
2019-01-19T17:26:56.460Z,9.00
2019-01-19T17:29:30.606Z,9.30
2019-01-19T17:32:19.995Z,9.98
2019-01-19T17:34:59.803Z,9.90
2019-01-19T17:37:34.163Z,10.05
2019-01-19T17:40:26.738Z,9.90
2019-01-19T17:43:13.578Z,10.18
2019-01-19T17:45:54.070Z,10.48
2019-01-19T17:48:34.719Z,11.40
2019-01-19T17:51:15.099Z,10.85
2019-01-19T17:53:55.267Z,11.48
2019-01-19T17:56:38.523Z,10.70
2019-01-19T17:59:12.627Z,11.50
2019-01-19T18:02:02.664Z,13.62
2019-01-19T18:04:40.198Z,13.50
2019-01-19T18:07:28.230Z,13.83
2019-01-19T18:10:02.559Z,13.65
2019-01-19T18:12:36.715Z,14.78
2019-01-19T18:15:17.061Z,13.22
2019-01-19T18:17:52.351Z,12.00
2019-01-19T18:20:41.904Z,11.60
2019-01-19T18:23:26.715Z,11.20
2019-01-19T18:26:17.215Z,10.90
2019-01-19T18:29:04.034Z,11.08
2019-01-19T18:31:56.378Z,10.93
2019-01-19T18:34:30.353Z,10.80
2019-01-19T18:37:10.870Z,11.40
2019-01-19T18:39:45.170Z,11.28
2019-01-19T18:42:16.636Z,11.45
2019-01-19T18:45:08.998Z,11.22
2019-01-19T18:47:43.262Z,11.28
2019-01-19T18:50:43.467Z,11.20
2019-01-19T18:53:14.984Z,11.50
2019-01-19T18:56:06.217Z,14.15
2019-01-19T18:58:58.775Z,15.08
2019-01-19T19:01:36.138Z,16.57
2019-01-19T19:04:39.184Z,16.27
2019-01-19T19:07:25.607Z,15.40
2019-01-19T19:10:15.156Z,15.58
2019-01-19T19:13:03.362Z,15.25
2019-01-19T19:15:39.923Z,15.28
2019-01-19T19:18:22.962Z,15.37
2019-01-19T19:21:03.312Z,15.95
2019-01-19T19:23:34.794Z,15.25
2019-01-19T19:26:09.181Z,16.37
2019-01-19T19:28:52.648Z,16.82
2019-01-19T19:31:24.106Z,16.37
2019-01-19T19:34:12.496Z,17.37
2019-01-19T19:36:52.932Z,18.73
2019-01-19T19:39:45.119Z,19.85
2019-01-19T19:42:22.459Z,18.70
2019-01-19T19:45:02.611Z,18.45
2019-01-19T19:47:53.264Z,19.23
2019-01-19T19:50:44.337Z,18.40
2019-01-19T19:53:12.539Z,19.20
2019-01-19T19:55:39.870Z,18.82
2019-01-19T19:58:08.098Z,19.90
2019-01-19T20:00:36.316Z,18.42
2019-01-19T20:03:04.604Z,18.90
2019-01-19T20:05:32.807Z,18.25
2019-01-19T20:08:01.009Z,18.80
2019-01-19T20:10:31.126Z,18.00
2019-01-19T20:12:59.364Z,18.32
2019-01-19T20:15:27.571Z,18.15
2019-01-19T20:17:55.798Z,18.35
2019-01-19T20:20:24.059Z,18.10
2019-01-19T20:22:52.258Z,18.80
2019-01-19T20:25:20.506Z,19.35
2019-01-19T20:27:48.715Z,20.17
2019-01-19T20:30:17.402Z,20.75
2019-01-19T20:32:45.631Z,21.25
2019-01-19T20:35:13.837Z,21.57
2019-01-19T20:37:42.064Z,23.07
2019-01-19T20:40:10.650Z,22.58
2019-01-19T20:42:38.870Z,23.22
2019-01-19T20:45:12.043Z,21.50
2019-01-19T20:47:40.286Z,21.40
2019-01-19T20:50:10.758Z,20.25
2019-01-19T20:52:39.006Z,19.50
2019-01-19T20:55:09.944Z,20.15
2019-01-19T20:57:39.087Z,22.05
2019-01-19T21:00:14.074Z,21.87
2019-01-19T21:02:42.284Z,21.33
2019-01-19T21:05:10.516Z,21.82
2019-01-19T21:07:38.718Z,21.12
2019-01-19T21:10:07.326Z,21.47
2019-01-19T21:12:35.551Z,22.10
2019-01-19T21:15:05.558Z,24.52
2019-01-19T21:17:33.779Z,25.60
2019-01-19T21:20:01.989Z,27.93
2019-01-19T21:22:30.209Z,25.02
2019-01-19T21:24:58.422Z,21.73
2019-01-19T21:27:26.644Z,20.55
2019-01-19T21:29:54.884Z,18.73
2019-01-19T21:32:23.142Z,18.65
2019-01-19T21:34:51.346Z,17.73
2019-01-19T21:37:19.562Z,18.12
2019-01-19T21:39:47.852Z,16.37
2019-01-19T21:42:16.185Z,17.00
2019-01-19T21:44:44.420Z,17.37
2019-01-19T21:47:12.620Z,17.30
2019-01-19T21:49:40.858Z,17.63
2019-01-19T21:52:09.062Z,17.40
2019-01-19T21:54:37.338Z,17.12
2019-01-19T21:57:05.551Z,16.52
2019-01-19T21:59:33.755Z,16.97
2019-01-19T22:02:02.010Z,16.17
2019-01-19T22:04:30.231Z,16.65
2019-01-19T22:06:58.456Z,16.10
2019-01-19T22:09:26.670Z,16.12
2019-01-19T22:11:54.874Z,15.75
2019-01-19T22:14:23.102Z,15.98
2019-01-19T22:16:51.311Z,15.60
2019-01-19T22:19:19.715Z,15.93
2019-01-19T22:21:48.002Z,15.80
2019-01-19T22:24:16.206Z,16.45
2019-01-19T22:26:46.070Z,16.73
2019-01-19T22:29:14.309Z,17.77
2019-01-19T22:31:42.515Z,16.45
2019-01-19T22:34:10.714Z,16.37
2019-01-19T22:36:38.946Z,15.85
2019-01-19T22:39:07.322Z,16.10
2019-01-19T22:41:35.559Z,16.35
2019-01-19T22:44:04.086Z,15.45
2019-01-19T22:46:32.285Z,15.23
2019-01-19T22:49:00.579Z,14.50
2019-01-19T22:51:28.795Z,15.85
2019-01-19T22:53:57.002Z,15.80
2019-01-19T22:56:25.223Z,16.82
2019-01-19T22:58:53.455Z,15.68
2019-01-19T23:01:30.738Z,15.28
2019-01-19T23:03:59.031Z,16.48
2019-01-19T23:06:27.261Z,16.20
2019-01-19T23:08:55.457Z,16.77
2019-01-19T23:11:23.698Z,16.48
2019-01-19T23:13:51.919Z,16.95
2019-01-19T23:16:20.173Z,17.60
2019-01-19T23:18:48.412Z,17.10
2019-01-19T23:21:16.617Z,17.82
2019-01-19T23:23:44.838Z,17.77
2019-01-19T23:26:13.151Z,18.65
2019-01-19T23:28:41.359Z,18.20
2019-01-19T23:31:09.563Z,18.57
2019-01-19T23:33:37.798Z,18.73
2019-01-19T23:36:06.006Z,19.90
2019-01-19T23:38:34.225Z,20.17
2019-01-19T23:41:08.927Z,19.52
2019-01-19T23:43:32.650Z,19.67
2019-01-19T23:46:00.859Z,20.20
2019-01-19T23:48:29.104Z,20.23
2019-01-19T23:50:57.308Z,19.17
2019-01-19T23:53:25.514Z,18.80
2019-01-19T23:55:53.748Z,18.52
2019-01-19T23:58:21.967Z,18.70
